Time;durP1;ratioP1;P1;durP2;ratioP2;P2;SDS_P1;SDS_P2;PMS_P1;PMS_P2;Temp;Humidity;BMP_temperature;BMP_pressure;BME280_temperature;BME280_humidity;BME280_pressure;Samples;Min_cycle;Max_cycle;Signal;HPM_P1;HPM_P2
2021/06/11 00:00:25;;;;;;;9.20;8.45;;;;;;;17.68;92.22;98947.03;5023979;27;104878;-76
2021/06/11 00:02:52;;;;;;;7.70;7.10;;;;;;;17.77;90.99;98942.59;5017123;27;103301;-76
2021/06/11 00:05:21;;;;;;;7.15;6.55;;;;;;;17.89;90.15;98944.91;5024442;27;103429;-76
2021/06/11 00:07:49;;;;;;;8.43;7.65;;;;;;;17.97;89.00;98957.50;5024594;27;103057;-74
2021/06/11 00:10:18;;;;;;;7.85;7.20;;;;;;;18.00;89.75;98951.00;5017164;28;104056;-73
2021/06/11 00:12:45;;;;;;;6.75;6.25;;;;;;;17.96;89.57;98950.50;5024228;27;103154;-74
2021/06/11 00:15:13;;;;;;;7.50;6.80;;;;;;;17.78;90.90;98953.13;5022268;27;103386;-73
2021/06/11 00:17:41;;;;;;;8.48;7.78;;;;;;;17.72;91.49;98956.41;5026504;27;103022;-73
2021/06/11 00:20:10;;;;;;;11.43;10.35;;;;;;;17.53;92.89;98951.13;5021659;27;106462;-74
2021/06/11 00:22:38;;;;;;;11.18;10.18;;;;;;;17.41;93.65;98946.97;5024236;27;104728;-74
2021/06/11 00:25:10;;;;;;;13.85;12.60;;;;;;;17.18;94.91;98954.50;5022458;27;103624;-73
2021/06/11 00:27:38;;;;;;;10.55;9.55;;;;;;;17.29;94.63;98956.19;5025199;27;103112;-73
2021/06/11 00:30:08;;;;;;;10.15;9.32;;;;;;;17.35;94.28;98952.91;5009810;28;113535;-74
2021/06/11 00:32:36;;;;;;;8.45;7.78;;;;;;;17.43;93.20;98958.38;5023323;27;104410;-73
2021/06/11 00:35:04;;;;;;;10.88;9.88;;;;;;;17.30;94.52;98952.50;5021799;27;103095;-73
2021/06/11 00:37:32;;;;;;;13.35;12.05;;;;;;;17.20;94.86;98959.72;5023721;28;103675;-73
2021/06/11 00:39:59;;;;;;;12.10;10.90;;;;;;;17.13;95.72;98955.94;5012250;28;103869;-73
2021/06/11 00:42:28;;;;;;;10.55;9.65;;;;;;;16.98;97.10;98952.06;5031911;27;105815;-73
2021/06/11 00:44:56;;;;;;;12.68;11.57;;;;;;;16.99;96.39;98948.41;5023002;27;102971;-74
2021/06/11 00:47:23;;;;;;;12.05;11.02;;;;;;;16.94;96.81;98951.50;5024152;27;102792;-73
2021/06/11 00:49:51;;;;;;;13.27;12.07;;;;;;;16.90;96.41;98950.09;5021335;28;103861;-73
2021/06/11 00:52:18;;;;;;;12.55;11.32;;;;;;;16.95;96.17;98957.69;5022336;27;103949;-73
2021/06/11 00:54:46;;;;;;;10.57;9.65;;;;;;;17.06;95.96;98960.19;5025282;27;102928;-73
2021/06/11 00:57:13;;;;;;;11.85;10.80;;;;;;;17.12;95.01;98957.75;5023407;27;103201;-73
2021/06/11 00:59:43;;;;;;;10.95;10.05;;;;;;;17.00;95.48;98956.28;5021747;28;104863;-73
2021/06/11 01:02:12;;;;;;;11.40;10.25;;;;;;;16.99;96.16;98964.41;5017148;27;104483;-73
2021/06/11 01:04:40;;;;;;;10.07;9.15;;;;;;;17.07;95.60;98961.84;5023058;28;102995;-73
2021/06/11 01:07:08;;;;;;;12.45;11.30;;;;;;;17.09;94.95;98965.25;5027414;27;103137;-73
2021/06/11 01:09:37;;;;;;;11.80;10.70;;;;;;;16.95;95.39;98963.88;5019877;27;106407;-76
2021/06/11 01:12:06;;;;;;;10.45;9.65;;;;;;;16.99;95.23;98962.59;5022949;28;103099;-76
2021/06/11 01:14:34;;;;;;;11.02;10.10;;;;;;;16.99;94.56;98957.25;5022045;27;103848;-76
2021/06/11 01:17:04;;;;;;;8.85;8.10;;;;;;;16.96;95.13;98949.53;5023624;27;103054;-76
2021/06/11 01:19:37;;;;;;;9.32;8.52;;;;;;;17.02;94.46;98951.63;5029668;27;104322;-76
2021/06/11 01:22:10;;;;;;;9.80;8.90;;;;;;;17.08;92.69;98958.22;5022474;28;104785;-76
2021/06/11 01:24:51;;;;;;;11.82;10.75;;;;;;;16.69;95.98;98955.66;5020698;28;103065;-76
2021/06/11 01:27:21;;;;;;;12.60;11.27;;;;;;;16.63;97.09;98948.22;5015700;28;102858;-75
2021/06/11 01:29:52;;;;;;;10.63;9.70;;;;;;;16.72;96.78;98950.03;5023022;27;104795;-76
2021/06/11 01:32:20;;;;;;;10.32;9.45;;;;;;;16.78;95.66;98949.47;5023028;27;103752;-76
2021/06/11 01:34:52;;;;;;;9.85;8.95;;;;;;;16.89;94.06;98944.94;5023081;27;103032;-76
2021/06/11 01:37:22;;;;;;;10.32;9.43;;;;;;;16.91;93.73;98953.63;5030566;27;103126;-76
2021/06/11 01:39:52;;;;;;;11.35;9.25;;;;;;;16.74;95.16;98956.06;5023113;28;103395;-76
2021/06/11 01:42:21;;;;;;;13.63;9.75;;;;;;;16.73;94.68;98954.34;5030771;27;103737;-76
2021/06/11 01:44:51;;;;;;;10.63;9.63;;;;;;;16.69;95.57;98952.97;5024486;27;103054;-76
2021/06/11 01:47:20;;;;;;;10.85;9.85;;;;;;;16.68;95.33;98959.28;5022737;27;103446;-76
2021/06/11 01:49:50;;;;;;;8.35;6.95;;;;;;;16.66;96.11;98958.59;5019619;28;104029;-76
2021/06/11 01:52:18;;;;;;;12.13;11.07;;;;;;;16.74;94.72;98956.06;5021583;27;112106;-76
2021/06/11 01:54:47;;;;;;;14.40;13.00;;;;;;;16.10;99.36;98955.78;5021289;27;103041;-76
2021/06/11 01:57:15;;;;;;;12.68;11.48;;;;;;;16.06;100.00;98958.84;5029405;27;103381;-76
2021/06/11 01:59:46;;;;;;;13.55;12.25;;;;;;;16.06;100.00;98959.69;5022219;27;105743;-76
2021/06/11 02:02:14;;;;;;;11.10;10.02;;;;;;;16.31;99.63;98954.81;5010915;27;112513;-75
2021/06/11 02:04:42;;;;;;;10.77;9.88;;;;;;;16.40;98.99;98952.13;5022181;28;103421;-76
2021/06/11 02:07:10;;;;;;;13.32;11.52;;;;;;;16.37;98.39;98948.88;5023319;27;103668;-76
2021/06/11 02:09:40;;;;;;;14.13;12.73;;;;;;;16.36;97.49;98956.06;5024855;27;103279;-76
2021/06/11 02:12:09;;;;;;;11.30;10.35;;;;;;;16.29;98.77;98954.09;5022148;28;105366;-76
2021/06/11 02:14:38;;;;;;;12.75;11.65;;;;;;;16.30;98.57;98955.78;5010578;28;103614;-76
2021/06/11 02:17:09;;;;;;;12.38;11.10;;;;;;;16.33;98.48;98953.69;5021001;27;103014;-75
2021/06/11 02:19:39;;;;;;;11.82;10.82;;;;;;;16.25;98.15;98950.88;5011907;28;103908;-75
2021/06/11 02:22:08;;;;;;;12.95;11.82;;;;;;;16.25;98.27;98954.38;5013851;28;103439;-76
2021/06/11 02:24:37;;;;;;;14.25;11.88;;;;;;;16.29;97.78;98957.59;5022296;28;103105;-75
2021/06/11 02:27:07;;;;;;;12.60;11.40;;;;;;;16.23;98.71;98955.50;5022474;27;103009;-76
2021/06/11 02:29:35;;;;;;;12.68;11.48;;;;;;;16.24;98.55;98962.53;5021872;28;106297;-76
2021/06/11 02:32:03;;;;;;;12.57;11.48;;;;;;;16.25;98.83;98958.88;5022291;28;104286;-76
2021/06/11 02:34:32;;;;;;;13.90;12.57;;;;;;;16.25;97.38;98961.53;5005432;28;103030;-75
2021/06/11 02:37:00;;;;;;;15.00;13.60;;;;;;;16.02;99.32;98958.31;5021869;27;102722;-76
2021/06/11 02:39:28;;;;;;;14.05;12.68;;;;;;;16.08;99.65;98956.91;5020450;28;104004;-76
2021/06/11 02:42:01;;;;;;;14.98;13.02;;;;;;;16.11;99.49;98959.28;5025855;27;105035;-75
2021/06/11 02:44:31;;;;;;;13.47;12.10;;;;;;;16.11;99.10;98952.13;5022382;27;103647;-76
2021/06/11 02:47:04;;;;;;;15.73;14.30;;;;;;;16.20;97.83;98955.78;5021907;28;102791;-76
2021/06/11 02:49:37;;;;;;;15.65;13.98;;;;;;;16.13;97.50;98952.84;5020340;27;104484;-76
2021/06/11 02:52:07;;;;;;;17.20;15.68;;;;;;;15.83;100.00;98954.78;5021634;27;103709;-77
2021/06/11 02:54:39;;;;;;;13.63;12.13;;;;;;;15.87;100.00;98958.81;5023721;27;102957;-77
2021/06/11 02:57:16;;;;;;;16.08;14.52;;;;;;;15.96;100.00;98955.34;5024109;27;103163;-76
2021/06/11 02:59:47;;;;;;;12.95;11.75;;;;;;;16.11;100.00;98951.31;5022034;27;103892;-77
2021/06/11 03:02:22;;;;;;;12.35;10.80;;;;;;;16.18;99.38;98947.06;5021166;28;103666;-75
2021/06/11 03:04:54;;;;;;;13.15;12.05;;;;;;;16.22;98.53;98949.31;5019686;28;103571;-78
2021/06/11 03:07:25;;;;;;;16.50;14.73;;;;;;;16.06;99.32;98953.50;5024156;27;105154;-74
2021/06/11 03:09:57;;;;;;;13.95;12.65;;;;;;;16.18;99.37;98958.59;5020641;27;103962;-75
2021/06/11 03:12:26;;;;;;;13.50;12.27;;;;;;;16.24;98.01;98951.84;5024079;28;103716;-76
2021/06/11 03:14:54;;;;;;;13.70;12.48;;;;;;;16.19;98.58;98948.78;5024441;27;102618;-76
2021/06/11 03:17:27;;;;;;;13.00;11.77;;;;;;;16.20;99.06;98950.44;5025353;27;102920;-75
2021/06/11 03:20:03;;;;;;;16.25;14.70;;;;;;;16.20;98.23;98950.44;5025920;27;104079;-77
2021/06/11 03:22:33;;;;;;;13.82;12.63;;;;;;;16.23;98.02;98944.81;5013920;28;104139;-76
2021/06/11 03:25:07;;;;;;;14.00;12.73;;;;;;;16.22;97.13;98948.50;5024539;27;103827;-79
2021/06/11 03:27:40;;;;;;;17.42;15.88;;;;;;;15.97;99.34;98947.19;5015579;28;102540;-82
2021/06/11 03:30:10;;;;;;;17.25;15.45;;;;;;;15.88;100.00;98950.72;5023792;27;104471;-85
2021/06/11 03:32:41;;;;;;;15.07;13.57;;;;;;;15.79;100.00;98954.19;5024530;27;103786;-84
2021/06/11 03:35:17;;;;;;;15.85;14.25;;;;;;;15.85;100.00;98960.78;5025431;27;103082;-87
2021/06/11 03:37:47;;;;;;;17.75;15.48;;;;;;;15.84;100.00;98961.75;5012790;27;102831;-82
2021/06/11 03:40:19;;;;;;;15.50;14.13;;;;;;;16.00;100.00;98964.75;5016936;28;103837;-82
2021/06/11 03:42:48;;;;;;;18.10;16.35;;;;;;;16.05;99.84;98962.50;5024128;27;106589;-88
2021/06/11 03:45:16;;;;;;;17.70;15.27;;;;;;;15.79;100.00;98972.84;5024826;27;102571;-84
2021/06/11 03:47:46;;;;;;;20.23;17.52;;;;;;;15.73;100.00;98970.72;5024923;27;102855;-82
2021/06/11 03:50:20;;;;;;;16.45;14.85;;;;;;;15.98;100.00;98977.34;5021148;28;104392;-91
2021/06/11 03:52:49;;;;;;;17.57;15.97;;;;;;;16.02;100.00;98973.44;5024683;27;103699;-84
2021/06/11 03:55:19;;;;;;;14.45;13.10;;;;;;;15.87;100.00;98969.47;5022402;27;103205;-91
2021/06/11 03:57:52;;;;;;;14.80;13.50;;;;;;;15.88;100.00;98972.03;5024723;28;102960;-88
2021/06/11 04:00:22;;;;;;;16.45;14.77;;;;;;;15.90;100.00;98970.06;5022273;28;104923;-90
2021/06/11 04:02:50;;;;;;;16.83;15.23;;;;;;;16.05;100.00;98968.69;5024811;27;105208;-88
2021/06/11 04:05:19;;;;;;;15.48;14.07;;;;;;;16.18;100.00;98963.91;5024448;27;103086;-86
2021/06/11 04:07:52;;;;;;;13.30;12.07;;;;;;;16.29;99.99;98970.94;5024025;28;102838;-91
2021/06/11 04:10:27;;;;;;;13.93;12.53;;;;;;;16.40;98.79;98965.47;5014699;27;105478;-89
2021/06/11 04:12:56;;;;;;;14.97;13.77;;;;;;;16.38;98.40;98964.75;5025205;27;103698;-92
2021/06/11 04:15:27;;;;;;;15.48;13.98;;;;;;;16.44;97.87;98971.34;5022739;27;103664;-90
2021/06/11 04:18:01;;;;;;;13.90;12.35;;;;;;;16.51;97.87;98970.63;5016595;27;103024;-86
2021/06/11 04:20:31;;;;;;;12.90;11.77;;;;;;;16.51;97.64;98970.63;5031225;27;104601;-87
2021/06/11 04:23:01;;;;;;;15.73;14.25;;;;;;;16.62;97.29;98967.00;5024170;27;103707;-87
2021/06/11 04:25:32;;;;;;;11.45;10.45;;;;;;;16.70;96.72;98975.16;5024067;27;103247;-88
2021/06/11 04:28:01;;;;;;;11.60;10.60;;;;;;;16.79;95.91;98974.28;5024752;28;103394;-87
2021/06/11 04:30:29;;;;;;;10.35;9.45;;;;;;;16.86;95.74;98974.56;5013455;28;104896;-87
2021/06/11 04:32:57;;;;;;;12.85;11.65;;;;;;;16.65;97.20;98972.91;5021097;27;103709;-86
2021/06/11 04:35:25;;;;;;;10.93;9.93;;;;;;;16.84;96.24;98971.22;5009518;27;103054;-87
2021/06/11 04:37:56;;;;;;;16.25;14.77;;;;;;;16.64;96.21;98970.41;5022651;27;102983;-87
2021/06/11 04:40:24;;;;;;;15.55;13.93;;;;;;;16.65;97.17;98972.06;5012512;27;103796;-87
2021/06/11 04:42:52;;;;;;;10.98;10.07;;;;;;;16.79;96.26;98975.13;5017345;28;104910;-87
2021/06/11 04:45:19;;;;;;;11.48;10.48;;;;;;;16.74;96.39;98988.06;5003270;27;102634;-83
2021/06/11 04:47:47;;;;;;;16.60;14.25;;;;;;;16.72;95.25;98984.72;4999666;28;103544;-86
2021/06/11 04:50:14;;;;;;;14.02;12.65;;;;;;;16.67;95.64;98986.94;5002553;28;105417;-86
2021/06/11 04:52:42;;;;;;;10.98;10.07;;;;;;;16.72;95.95;98983.84;5017922;28;107671;-87
2021/06/11 04:55:11;;;;;;;13.82;12.50;;;;;;;16.88;94.57;98988.59;5015453;27;103149;-80
2021/06/11 04:57:39;;;;;;;9.68;8.70;;;;;;;17.07;93.83;98989.41;5013289;27;104312;-83
2021/06/11 05:00:09;;;;;;;10.13;9.27;;;;;;;17.24;91.97;98996.66;5016331;28;103855;-73
2021/06/11 05:02:36;;;;;;;11.20;10.15;;;;;;;17.14;92.74;98992.34;5005142;28;103648;-78
2021/06/11 05:05:05;;;;;;;10.40;9.50;;;;;;;17.21;92.61;98985.41;4993952;27;103090;-80
2021/06/11 05:07:32;;;;;;;12.10;11.10;;;;;;;17.01;93.53;98989.16;5010008;28;103626;-79
2021/06/11 05:10:00;;;;;;;15.00;13.20;;;;;;;17.06;92.85;99003.75;5004653;28;105121;-79
2021/06/11 05:12:29;;;;;;;11.90;10.73;;;;;;;17.28;92.15;98994.53;5009401;28;104943;-78
2021/06/11 05:14:56;;;;;;;12.07;10.85;;;;;;;17.27;92.16;99001.69;5013371;27;103699;-76
2021/06/11 05:17:24;;;;;;;11.73;10.68;;;;;;;17.33;91.97;99000.28;5040437;27;103905;-76
2021/06/11 05:19:51;;;;;;;11.23;10.23;;;;;;;17.19;92.15;99003.41;5035770;27;104727;-79
2021/06/11 05:22:21;;;;;;;10.40;9.50;;;;;;;17.34;92.04;99012.66;5037882;27;104232;-79
2021/06/11 05:24:48;;;;;;;11.52;10.45;;;;;;;17.48;91.07;99008.66;5039242;27;103546;-76
2021/06/11 05:27:16;;;;;;;10.25;9.35;;;;;;;17.71;89.90;98993.97;5041800;27;103259;-76
2021/06/11 05:29:45;;;;;;;12.90;11.60;;;;;;;17.67;89.24;98998.75;5041294;27;103880;-76
2021/06/11 05:32:12;;;;;;;13.73;12.32;;;;;;;17.65;90.13;99000.75;5040595;27;103700;-76
2021/06/11 05:34:40;;;;;;;13.90;12.63;;;;;;;17.54;89.97;99003.63;5038870;27;103104;-77
2021/06/11 05:37:07;;;;;;;12.95;11.75;;;;;;;17.38;90.34;99006.03;5040681;27;103151;-75
2021/06/11 05:39:35;;;;;;;12.48;11.48;;;;;;;17.51;90.16;99008.38;5054554;27;109759;-76
2021/06/11 05:42:02;;;;;;;13.30;11.70;;;;;;;17.67;89.51;99006.78;5040141;27;103778;-76
2021/06/11 05:44:30;;;;;;;11.23;10.32;;;;;;;17.78;89.00;99006.59;5037759;27;103594;-79
2021/06/11 05:46:59;;;;;;;10.45;9.52;;;;;;;17.90;88.42;99012.56;5040299;27;103016;-82
2021/06/11 05:49:26;;;;;;;12.10;11.02;;;;;;;17.95;87.91;99011.13;5039622;27;103868;-76
2021/06/11 05:51:54;;;;;;;9.95;8.95;;;;;;;18.06;87.62;99011.91;5039390;27;104358;-75
2021/06/11 05:54:21;;;;;;;11.32;10.40;;;;;;;18.08;87.00;99012.63;5040729;27;103115;-81
2021/06/11 05:56:49;;;;;;;11.70;10.70;;;;;;;18.18;86.77;99005.34;5040877;27;103412;-77
2021/06/11 05:59:16;;;;;;;10.48;9.57;;;;;;;18.16;87.32;99010.03;5038907;27;112135;-79
2021/06/11 06:01:43;;;;;;;11.45;10.32;;;;;;;18.17;86.19;99004.50;5032593;27;104119;-78
2021/06/11 06:04:12;;;;;;;9.50;8.60;;;;;;;18.31;86.75;99005.81;5039367;27;103225;-77
2021/06/11 06:06:40;;;;;;;11.63;10.60;;;;;;;18.28;86.47;99003.44;5040761;27;102982;-79
2021/06/11 06:09:07;;;;;;;10.63;9.73;;;;;;;18.45;85.82;99005.28;5040594;27;104452;-78
2021/06/11 06:11:35;;;;;;;11.52;10.43;;;;;;;18.63;85.07;99010.66;5039879;27;103384;-78
2021/06/11 06:14:04;;;;;;;9.80;8.98;;;;;;;18.87;84.04;99010.84;5039093;27;103960;-79
2021/06/11 06:16:32;;;;;;;13.90;10.88;;;;;;;18.88;83.84;99016.06;5040137;27;103064;-78
2021/06/11 06:18:59;;;;;;;14.40;11.55;;;;;;;18.67;85.67;99012.88;5039690;27;103962;-79
2021/06/11 06:21:30;;;;;;;8.05;7.35;;;;;;;19.02;84.28;99004.81;5036635;27;104815;-78
2021/06/11 06:23:59;;;;;;;12.35;11.05;;;;;;;19.08;83.36;99008.69;5037779;27;103045;-77
2021/06/11 06:26:27;;;;;;;12.45;11.18;;;;;;;19.00;83.78;99005.97;5040321;27;103713;-77
2021/06/11 06:28:54;;;;;;;9.05;8.18;;;;;;;19.19;83.34;99003.06;5040853;27;105259;-78
2021/06/11 06:31:22;;;;;;;11.13;10.20;;;;;;;19.32;82.90;99005.31;5039560;27;103198;-78
2021/06/11 06:33:50;;;;;;;12.38;11.10;;;;;;;19.39;81.47;99007.25;5038755;27;103306;-78
2021/06/11 06:36:17;;;;;;;11.73;10.43;;;;;;;19.30;82.28;99005.47;5039624;27;102975;-80
2021/06/11 06:38:46;;;;;;;9.40;8.55;;;;;;;19.59;81.08;99002.50;5035656;27;104785;-78
2021/06/11 06:41:17;;;;;;;10.50;9.50;;;;;;;19.84;80.44;99000.75;5037785;27;104252;-81
2021/06/11 06:43:44;;;;;;;11.10;9.93;;;;;;;20.03;80.83;99000.47;5043629;27;103196;-81
2021/06/11 06:46:15;;;;;;;9.88;8.88;;;;;;;20.18;79.93;99007.72;5043530;27;103294;-78
2021/06/11 06:48:43;;;;;;;10.68;9.57;;;;;;;20.11;79.71;99001.34;5041009;27;105799;-79
2021/06/11 06:51:11;;;;;;;11.80;10.63;;;;;;;19.92;80.02;99004.31;5042003;27;105541;-79
2021/06/11 06:53:38;;;;;;;9.23;8.02;;;;;;;20.15;80.01;99000.00;5037174;27;103659;-78
2021/06/11 06:56:07;;;;;;;7.82;7.13;;;;;;;20.57;77.80;99004.47;5040428;27;103049;-79
2021/06/11 06:58:36;;;;;;;8.98;8.18;;;;;;;20.69;77.79;98998.59;5042338;27;104281;-79
2021/06/11 07:01:04;;;;;;;11.20;10.15;;;;;;;20.62;77.77;99012.84;5030487;27;104107;-78
2021/06/11 07:03:31;;;;;;;10.85;9.93;;;;;;;20.77;77.86;99005.84;5044367;27;103138;-78
2021/06/11 07:05:59;;;;;;;10.45;9.48;;;;;;;21.14;76.95;99006.16;5045036;27;102958;-75
2021/06/11 07:08:30;;;;;;;10.55;9.05;;;;;;;21.13;75.63;99006.34;5043905;27;103738;-74
2021/06/11 07:10:58;;;;;;;9.23;8.25;;;;;;;21.43;75.90;99018.19;5043748;27;103618;-74
2021/06/11 07:13:31;;;;;;;10.73;9.68;;;;;;;21.46;75.14;99005.25;5041004;27;104051;-75
2021/06/11 07:15:59;;;;;;;9.73;8.85;;;;;;;21.55;74.76;99019.50;5043794;27;103646;-80
2021/06/11 07:18:27;;;;;;;8.45;7.40;;;;;;;21.64;75.74;99016.59;5043071;27;104373;-79
2021/06/11 07:20:54;;;;;;;9.35;8.55;;;;;;;21.69;74.26;99003.50;5043154;27;105318;-79
2021/06/11 07:23:22;;;;;;;12.00;10.88;;;;;;;21.93;72.70;99010.66;5042543;27;103183;-79
2021/06/11 07:25:49;;;;;;;9.32;8.52;;;;;;;21.79;73.06;99005.97;5043783;27;103130;-79
2021/06/11 07:28:17;;;;;;;8.30;7.60;;;;;;;22.18;72.21;99012.19;5036975;27;103899;-79
2021/06/11 07:30:45;;;;;;;9.02;7.68;;;;;;;22.59;71.35;99007.41;5042480;27;106231;-79
2021/06/11 07:33:13;;;;;;;7.03;6.43;;;;;;;22.80;70.85;99002.22;5043536;27;103010;-79
2021/06/11 07:35:41;;;;;;;10.48;9.48;;;;;;;22.79;69.94;99008.59;5043869;27;103268;-79
2021/06/11 07:38:08;;;;;;;10.35;9.32;;;;;;;23.03;68.55;99005.72;5033949;27;105080;-80
2021/06/11 07:40:56;;;;;;;10.07;8.38;;;;;;;23.57;67.49;98997.44;5023318;27;108016;-78
2021/06/11 07:43:25;;;;;;;10.90;9.98;;;;;;;23.35;66.05;99003.72;5023381;27;103344;-78
2021/06/11 07:45:55;;;;;;;8.15;7.53;;;;;;;23.77;67.50;99003.13;5023233;28;103117;-79
2021/06/11 07:48:23;;;;;;;10.32;9.27;;;;;;;23.99;65.11;99002.16;5011928;28;103700;-79
2021/06/11 07:50:51;;;;;;;10.30;9.13;;;;;;;23.76;67.37;99001.44;5023302;27;103713;-79
2021/06/11 07:53:23;;;;;;;10.20;9.20;;;;;;;24.04;65.55;99010.50;5021589;27;103045;-79
2021/06/11 07:55:50;;;;;;;11.93;10.93;;;;;;;22.94;66.78;99011.34;5022951;27;103043;-79
2021/06/11 07:58:18;;;;;;;8.82;8.02;;;;;;;23.55;67.93;99008.41;5023210;27;103997;-79
2021/06/11 08:00:46;;;;;;;10.35;9.38;;;;;;;24.40;64.08;99000.59;5021968;27;104021;-79
2021/06/11 08:03:15;;;;;;;10.45;9.45;;;;;;;24.18;65.00;99009.69;5019367;27;102564;-79
2021/06/11 08:05:42;;;;;;;11.48;9.45;;;;;;;24.70;64.88;99004.84;5010085;27;103537;-79
2021/06/11 08:08:10;;;;;;;8.25;7.55;;;;;;;24.97;62.09;98997.84;5011799;28;110177;-79
2021/06/11 08:10:38;;;;;;;9.23;8.27;;;;;;;25.12;63.00;99003.16;5020497;27;104189;-79
2021/06/11 08:13:06;;;;;;;10.10;9.15;;;;;;;24.66;63.16;99000.88;5022053;27;102924;-79
2021/06/11 08:15:34;;;;;;;11.70;10.52;;;;;;;24.05;63.43;98999.53;5017263;28;103307;-79
2021/06/11 08:18:03;;;;;;;10.35;9.55;;;;;;;24.59;62.12;99002.66;5018692;27;104248;-79
2021/06/11 08:20:33;;;;;;;7.53;6.90;;;;;;;25.36;61.42;98998.16;5022310;27;103744;-80
2021/06/11 08:23:03;;;;;;;10.40;9.10;;;;;;;25.42;59.32;98996.53;5015976;27;103936;-79
2021/06/11 08:25:32;;;;;;;8.48;7.78;;;;;;;26.66;57.24;98998.13;5022262;27;103413;-79
2021/06/11 08:28:00;;;;;;;9.50;8.70;;;;;;;25.72;59.41;99002.53;5021164;27;104914;-79
2021/06/11 08:30:29;;;;;;;12.15;11.07;;;;;;;25.20;59.86;98997.63;5022272;27;103301;-79
2021/06/11 08:32:58;;;;;;;10.48;9.68;;;;;;;26.29;58.79;98994.94;5022318;28;102766;-79
2021/06/11 08:35:27;;;;;;;10.73;9.70;;;;;;;25.51;61.31;98995.38;5036270;27;103702;-79
2021/06/11 08:37:56;;;;;;;8.98;8.25;;;;;;;26.91;58.29;98991.09;5027111;27;103947;-80
2021/06/11 08:40:25;;;;;;;10.80;9.82;;;;;;;27.54;54.34;98984.16;5040822;27;105321;-79
2021/06/11 08:42:53;;;;;;;9.10;8.23;;;;;;;27.40;56.49;98987.94;5042700;27;103739;-79
2021/06/11 08:45:22;;;;;;;12.38;10.25;;;;;;;27.91;54.13;98996.19;5036198;27;103206;-79
2021/06/11 08:47:52;;;;;;;9.50;8.75;;;;;;;28.45;53.54;98985.72;5040249;27;105175;-79
2021/06/11 08:50:23;;;;;;;10.20;9.30;;;;;;;27.70;52.39;98989.16;5040762;27;104124;-79
2021/06/11 08:52:50;;;;;;;10.98;8.07;;;;;;;27.98;52.52;98986.97;5041199;27;102991;-79
2021/06/11 08:55:20;;;;;;;7.15;6.65;;;;;;;28.18;53.85;98985.00;5041730;27;103134;-79
2021/06/11 08:57:48;;;;;;;8.18;7.50;;;;;;;27.96;54.57;98983.63;5030357;27;103860;-79
2021/06/11 09:00:16;;;;;;;8.68;7.97;;;;;;;28.26;55.27;98983.13;5043224;27;104242;-79
2021/06/11 09:03:10;;;;;;;9.07;8.27;;;;;;;27.91;54.36;98980.72;5044167;27;103019;-79
2021/06/11 09:05:39;;;;;;;9.98;9.07;;;;;;;28.68;51.65;98974.31;5043034;27;103187;-79
2021/06/11 09:08:15;;;;;;;7.30;6.70;;;;;;;29.97;48.79;98977.94;5043295;27;103750;-79
2021/06/11 09:10:45;;;;;;;7.55;6.95;;;;;;;29.78;50.67;98974.34;5041730;27;105966;-79
2021/06/11 09:13:23;;;;;;;8.77;8.00;;;;;;;29.84;50.46;98981.63;5037917;27;103268;-79
2021/06/11 09:15:51;;;;;;;9.88;8.50;;;;;;;29.64;49.16;98982.91;5042007;27;103718;-79
2021/06/11 09:18:22;;;;;;;8.73;8.13;;;;;;;29.80;50.31;98977.72;5040304;27;105002;-79
2021/06/11 09:20:50;;;;;;;9.13;8.43;;;;;;;29.53;47.32;98978.22;5037894;27;103647;-79
2021/06/11 09:23:18;;;;;;;9.82;9.02;;;;;;;30.24;48.07;98973.78;5041213;27;102860;-79
2021/06/11 09:25:49;;;;;;;10.50;9.60;;;;;;;29.79;46.46;98975.16;5040913;27;102665;-79
2021/06/11 09:28:18;;;;;;;9.25;8.35;;;;;;;29.05;47.87;98970.69;5041853;27;104051;-79
2021/06/11 09:30:51;;;;;;;8.60;7.57;;;;;;;28.77;48.38;98973.00;5041290;27;104726;-79
2021/06/11 09:33:20;;;;;;;8.90;8.20;;;;;;;28.76;48.45;98971.31;5042219;27;103287;-79
2021/06/11 09:35:54;;;;;;;9.88;9.05;;;;;;;28.31;50.35;98964.28;5041722;27;103198;-81
2021/06/11 09:38:25;;;;;;;7.78;7.07;;;;;;;28.67;49.90;98973.47;5027643;27;103965;-79
2021/06/11 09:41:11;;;;;;;8.00;7.43;;;;;;;28.47;50.11;98969.19;5020962;27;106339;-79
2021/06/11 09:43:54;;;;;;;7.75;7.13;;;;;;;29.21;49.33;98967.41;5031399;27;103110;-79
2021/06/11 09:46:22;;;;;;;9.77;9.00;;;;;;;27.96;48.76;98967.34;5041733;27;103333;-79
2021/06/11 09:48:51;;;;;;;8.23;7.50;;;;;;;29.18;48.73;98967.84;5041364;27;103950;-79
2021/06/11 09:51:20;;;;;;;9.55;8.77;;;;;;;27.71;49.18;98969.09;5041359;27;104242;-79
2021/06/11 09:53:48;;;;;;;9.50;8.75;;;;;;;28.12;49.63;98968.78;5041857;27;103411;-79
2021/06/11 09:56:21;;;;;;;7.40;6.90;;;;;;;28.42;47.63;98963.56;5039915;27;103462;-79
2021/06/11 09:58:49;;;;;;;9.10;8.30;;;;;;;28.79;48.62;98959.19;5041459;27;105668;-78
2021/06/11 10:01:17;;;;;;;8.38;7.78;;;;;;;29.82;46.54;98963.84;5041675;27;105191;-78
2021/06/11 10:03:48;;;;;;;9.82;9.00;;;;;;;29.15;46.53;98962.84;5041565;27;102908;-79
2021/06/11 10:06:18;;;;;;;8.40;7.63;;;;;;;30.35;47.67;98958.53;5041724;27;103234;-79
2021/06/11 10:08:47;;;;;;;9.60;8.80;;;;;;;29.44;48.81;98963.22;5040300;27;103895;-79
2021/06/11 10:11:16;;;;;;;9.73;9.00;;;;;;;29.90;44.80;98958.09;5040215;27;104262;-79
2021/06/11 10:13:45;;;;;;;7.30;6.70;;;;;;;30.73;45.76;98950.06;5039572;27;103317;-79
2021/06/11 10:16:15;;;;;;;8.98;8.18;;;;;;;29.88;41.77;98952.06;5040389;27;103365;-79
2021/06/11 10:18:43;;;;;;;8.85;8.25;;;;;;;30.89;41.91;98952.09;5040890;27;104373;-79
2021/06/11 10:21:12;;;;;;;11.38;10.25;;;;;;;27.32;45.12;98961.88;5036307;27;104734;-79
2021/06/11 10:23:40;;;;;;;6.85;6.45;;;;;;;30.20;45.43;98956.25;5041527;27;103365;-79
2021/06/11 10:26:10;;;;;;;9.90;9.02;;;;;;;29.49;44.36;98952.47;5041345;27;102760;-79
2021/06/11 10:28:39;;;;;;;11.90;10.63;;;;;;;28.00;46.42;98957.72;5040405;27;105372;-79
2021/06/11 10:31:10;;;;;;;12.57;11.57;;;;;;;27.93;46.51;98948.75;5039554;27;104920;-76
2021/06/11 10:33:55;;;;;;;8.57;7.88;;;;;;;29.84;44.95;98939.94;5040035;27;103495;-78
2021/06/11 10:36:36;;;;;;;9.48;8.70;;;;;;;28.90;44.66;98945.69;5040804;27;103442;-79
2021/06/11 10:39:22;;;;;;;8.80;8.10;;;;;;;28.24;44.48;98948.00;5040899;27;104279;-78
2021/06/11 10:41:59;;;;;;;8.75;7.90;;;;;;;29.13;43.42;98954.09;5040101;27;113104;-78
2021/06/11 10:44:34;;;;;;;8.80;8.13;;;;;;;28.58;44.11;98938.59;5005120;27;103553;-79
2021/06/11 10:47:28;;;;;;;8.25;7.55;;;;;;;28.99;44.92;98947.09;5017628;28;104671;-79
2021/06/11 10:50:11;;;;;;;8.30;7.38;;;;;;;28.61;46.11;98943.59;5015682;28;103922;-79
2021/06/11 10:52:42;;;;;;;9.15;8.30;;;;;;;28.44;45.25;98947.88;5008005;28;103734;-79
2021/06/11 10:55:44;;;;;;;9.15;8.48;;;;;;;27.66;43.83;98938.22;5009111;28;103086;-79
2021/06/11 10:58:23;;;;;;;9.25;8.50;;;;;;;29.31;43.25;98942.41;5001168;28;103089;-81
2021/06/11 11:00:50;;;;;;;7.75;7.10;;;;;;;30.51;43.36;98946.22;5015941;28;103862;-79
2021/06/11 11:03:30;;;;;;;8.63;7.97;;;;;;;29.89;42.53;98929.22;5019322;28;103737;-79
2021/06/11 11:05:59;;;;;;;8.80;7.95;;;;;;;28.93;45.10;98926.22;5003615;28;103537;-82
2021/06/11 11:08:52;;;;;;;8.23;7.53;;;;;;;29.96;43.16;98927.22;5011146;28;103678;-81
2021/06/11 11:11:40;;;;;;;9.30;8.50;;;;;;;29.72;42.41;98926.25;5016116;28;105294;-81
2021/06/11 11:14:28;;;;;;;9.93;9.00;;;;;;;28.91;43.27;98928.34;5013909;27;104571;-80
2021/06/11 11:16:58;;;;;;;9.80;9.05;;;;;;;28.61;45.29;98921.84;5011796;28;103295;-79
2021/06/11 11:19:53;;;;;;;9.23;8.43;;;;;;;29.65;45.18;98917.31;5005849;28;103014;-79
2021/06/11 11:22:26;;;;;;;7.90;7.25;;;;;;;30.72;42.70;98912.94;5014584;28;105028;-79
2021/06/11 11:24:54;;;;;;;15.30;9.32;;;;;;;29.07;45.71;98914.16;5016127;27;103678;-79
2021/06/11 11:27:22;;;;;;;10.68;9.80;;;;;;;29.50;45.34;98910.63;5015166;28;103069;-79
2021/06/11 11:29:51;;;;;;;8.57;7.97;;;;;;;29.81;45.56;98913.22;5021288;27;103514;-78